sensor_id;sensor_type;location;lat;lon;timestamp;pressure;altitude;pressure_sealevel;temperature;humidity
5146;BME280;2591;48.144;15.152;2022-09-09T00:01:07;75491.09;;;-144.65;100.00
5146;BME280;2591;48.144;15.152;2022-09-09T00:03:43;75482.94;;;-144.65;100.00
5146;BME280;2591;48.144;15.152;2022-09-09T00:06:17;75482.94;;;-144.65;100.00
5146;BME280;2591;48.144;15.152;2022-09-09T00:09:00;75474.78;;;-144.65;100.00
5146;BME280;2591;48.144;15.152;2022-09-09T00:11:36;75482.94;;;-144.65;100.00
5146;BME280;2591;48.144;15.152;2022-09-09T00:14:13;75480.91;;;-144.65;100.00
5146;BME280;2591;48.144;15.152;2022-09-09T00:16:49;75474.78;;;-144.65;100.00
5146;BME280;2591;48.144;15.152;2022-09-09T00:19:24;75470.72;;;-144.65;100.00
5146;BME280;2591;48.144;15.152;2022-09-09T00:22:08;75466.63;;;-144.65;100.00
5146;BME280;2591;48.144;15.152;2022-09-09T00:24:43;75466.63;;;-144.65;100.00
5146;BME280;2591;48.144;15.152;2022-09-09T00:27:19;75470.72;;;-144.65;100.00
5146;BME280;2591;48.144;15.152;2022-09-09T00:29:53;75478.88;;;-144.65;100.00
5146;BME280;2591;48.144;15.152;2022-09-09T00:32:22;75485.00;;;-144.65;100.00
5146;BME280;2591;48.144;15.152;2022-09-09T00:34:54;75487.03;;;-144.65;100.00
5146;BME280;2591;48.144;15.152;2022-09-09T00:37:24;75493.13;;;-144.65;100.00
5146;BME280;2591;48.144;15.152;2022-09-09T00:39:55;75509.44;;;-144.65;100.00
5146;BME280;2591;48.144;15.152;2022-09-09T00:42:26;75519.63;;;-144.65;100.00
5146;BME280;2591;48.144;15.152;2022-09-09T00:45:02;75523.72;;;-144.65;100.00
5146;BME280;2591;48.144;15.152;2022-09-09T00:47:43;75533.91;;;-144.65;100.00
5146;BME280;2591;48.144;15.152;2022-09-09T00:50:26;75544.09;;;-144.65;100.00
5146;BME280;2591;48.144;15.152;2022-09-09T00:53:05;75537.97;;;-144.65;100.00
5146;BME280;2591;48.144;15.152;2022-09-09T00:55:43;75531.88;;;-144.65;100.00
5146;BME280;2591;48.144;15.152;2022-09-09T00:58:12;75535.94;;;-144.65;100.00
5146;BME280;2591;48.144;15.152;2022-09-09T01:00:43;75523.72;;;-144.65;100.00
5146;BME280;2591;48.144;15.152;2022-09-09T01:03:21;75537.97;;;-144.65;100.00
5146;BME280;2591;48.144;15.152;2022-09-09T01:06:00;75552.25;;;-144.65;100.00
5146;BME280;2591;48.144;15.152;2022-09-09T01:08:42;75564.47;;;-144.65;100.00
5146;BME280;2591;48.144;15.152;2022-09-09T01:11:21;75562.44;;;-144.65;100.00
5146;BME280;2591;48.144;15.152;2022-09-09T01:13:56;75548.19;;;-144.65;100.00
5146;BME280;2591;48.144;15.152;2022-09-09T01:16:29;75562.44;;;-144.65;100.00
5146;BME280;2591;48.144;15.152;2022-09-09T01:18:59;75562.44;;;-144.65;100.00
5146;BME280;2591;48.144;15.152;2022-09-09T01:21:37;75556.34;;;-144.65;100.00
5146;BME280;2591;48.144;15.152;2022-09-09T01:24:20;75556.34;;;-144.65;100.00
5146;BME280;2591;48.144;15.152;2022-09-09T01:26:52;75548.19;;;-144.65;100.00
5146;BME280;2591;48.144;15.152;2022-09-09T01:29:22;75542.06;;;-144.65;100.00
5146;BME280;2591;48.144;15.152;2022-09-09T01:31:53;75548.19;;;-144.65;100.00
5146;BME280;2591;48.144;15.152;2022-09-09T01:34:23;75552.25;;;-144.65;100.00
5146;BME280;2591;48.144;15.152;2022-09-09T01:36:57;75556.34;;;-144.65;100.00
5146;BME280;2591;48.144;15.152;2022-09-09T01:39:26;75558.38;;;-144.65;100.00
5146;BME280;2591;48.144;15.152;2022-09-09T01:41:56;75564.47;;;-144.65;100.00
5146;BME280;2591;48.144;15.152;2022-09-09T01:44:25;75584.88;;;-144.65;100.00
5146;BME280;2591;48.144;15.152;2022-09-09T01:46:54;75593.03;;;-144.65;100.00
5146;BME280;2591;48.144;15.152;2022-09-09T01:49:22;75582.84;;;-144.65;100.00
5146;BME280;2591;48.144;15.152;2022-09-09T01:51:53;75582.84;;;-144.65;100.00
5146;BME280;2591;48.144;15.152;2022-09-09T01:54:23;75580.78;;;-144.65;100.00
5146;BME280;2591;48.144;15.152;2022-09-09T01:57:01;75572.63;;;-144.65;100.00
5146;BME280;2591;48.144;15.152;2022-09-09T01:59:45;75578.75;;;-144.65;100.00
5146;BME280;2591;48.144;15.152;2022-09-09T02:02:18;75572.63;;;-144.65;100.00
5146;BME280;2591;48.144;15.152;2022-09-09T02:04:48;75570.59;;;-144.65;100.00
5146;BME280;2591;48.144;15.152;2022-09-09T02:07:28;75564.47;;;-144.65;100.00
5146;BME280;2591;48.144;15.152;2022-09-09T02:10:01;75568.56;;;-144.65;100.00
5146;BME280;2591;48.144;15.152;2022-09-09T02:12:35;75570.59;;;-144.65;100.00
5146;BME280;2591;48.144;15.152;2022-09-09T02:15:12;75568.56;;;-144.65;100.00
5146;BME280;2591;48.144;15.152;2022-09-09T02:17:42;75568.56;;;-144.65;100.00
5146;BME280;2591;48.144;15.152;2022-09-09T02:20:12;75564.47;;;-144.65;100.00
5146;BME280;2591;48.144;15.152;2022-09-09T02:22:43;75576.72;;;-144.65;100.00
5146;BME280;2591;48.144;15.152;2022-09-09T02:25:15;75576.72;;;-144.65;100.00
5146;BME280;2591;48.144;15.152;2022-09-09T02:27:47;75588.94;;;-144.65;100.00
5146;BME280;2591;48.144;15.152;2022-09-09T02:30:18;75597.09;;;-144.65;100.00
5146;BME280;2591;48.144;15.152;2022-09-09T02:32:48;75605.25;;;-144.65;100.00
5146;BME280;2591;48.144;15.152;2022-09-09T02:35:20;75593.03;;;-144.65;100.00
5146;BME280;2591;48.144;15.152;2022-09-09T02:37:50;75597.09;;;-144.65;100.00
5146;BME280;2591;48.144;15.152;2022-09-09T02:40:19;75601.19;;;-144.65;100.00
5146;BME280;2591;48.144;15.152;2022-09-09T02:42:49;75605.25;;;-144.65;100.00
5146;BME280;2591;48.144;15.152;2022-09-09T02:45:19;75601.19;;;-144.65;100.00
5146;BME280;2591;48.144;15.152;2022-09-09T02:47:51;75599.13;;;-144.65;100.00
5146;BME280;2591;48.144;15.152;2022-09-09T02:50:26;75599.13;;;-144.65;100.00
5146;BME280;2591;48.144;15.152;2022-09-09T02:53:04;75593.03;;;-144.65;100.00
5146;BME280;2591;48.144;15.152;2022-09-09T02:55:41;75588.94;;;-144.65;100.00
5146;BME280;2591;48.144;15.152;2022-09-09T02:58:17;75576.72;;;-144.65;100.00
5146;BME280;2591;48.144;15.152;2022-09-09T03:00:46;75578.75;;;-144.65;100.00
5146;BME280;2591;48.144;15.152;2022-09-09T03:03:15;75572.63;;;-144.65;100.00
5146;BME280;2591;48.144;15.152;2022-09-09T03:05:44;75572.63;;;-144.65;100.00
5146;BME280;2591;48.144;15.152;2022-09-09T03:08:13;75568.56;;;-144.65;100.00
5146;BME280;2591;48.144;15.152;2022-09-09T03:10:41;75564.47;;;-144.65;100.00
5146;BME280;2591;48.144;15.152;2022-09-09T03:13:09;75556.34;;;-144.65;100.00
5146;BME280;2591;48.144;15.152;2022-09-09T03:15:41;75548.19;;;-144.65;100.00
5146;BME280;2591;48.144;15.152;2022-09-09T03:18:08;75552.25;;;-144.65;100.00
5146;BME280;2591;48.144;15.152;2022-09-09T03:20:36;75546.13;;;-144.65;100.00
5146;BME280;2591;48.144;15.152;2022-09-09T03:23:04;75533.91;;;-144.65;100.00
5146;BME280;2591;48.144;15.152;2022-09-09T03:25:32;75535.94;;;-144.65;100.00
5146;BME280;2591;48.144;15.152;2022-09-09T03:28:00;75535.94;;;-144.65;100.00
5146;BME280;2591;48.144;15.152;2022-09-09T03:30:28;75531.88;;;-144.65;100.00
5146;BME280;2591;48.144;15.152;2022-09-09T03:32:57;75525.75;;;-144.65;100.00
5146;BME280;2591;48.144;15.152;2022-09-09T03:35:25;75529.84;;;-144.65;100.00
5146;BME280;2591;48.144;15.152;2022-09-09T03:37:53;75531.88;;;-144.65;100.00
5146;BME280;2591;48.144;15.152;2022-09-09T03:40:21;75527.78;;;-144.65;100.00
5146;BME280;2591;48.144;15.152;2022-09-09T03:42:49;75523.72;;;-144.65;100.00
5146;BME280;2591;48.144;15.152;2022-09-09T03:45:17;75523.72;;;-144.65;100.00
5146;BME280;2591;48.144;15.152;2022-09-09T03:47:45;75519.63;;;-144.65;100.00
5146;BME280;2591;48.144;15.152;2022-09-09T03:50:14;75523.72;;;-144.65;100.00
5146;BME280;2591;48.144;15.152;2022-09-09T03:52:42;75527.78;;;-144.65;100.00
5146;BME280;2591;48.144;15.152;2022-09-09T03:55:10;75527.78;;;-144.65;100.00
5146;BME280;2591;48.144;15.152;2022-09-09T03:57:37;75531.88;;;-144.65;100.00
5146;BME280;2591;48.144;15.152;2022-09-09T04:00:07;75540.03;;;-144.65;100.00
5146;BME280;2591;48.144;15.152;2022-09-09T04:02:36;75540.03;;;-144.65;100.00
5146;BME280;2591;48.144;15.152;2022-09-09T04:05:04;75540.03;;;-144.65;100.00
5146;BME280;2591;48.144;15.152;2022-09-09T04:07:34;75540.03;;;-144.65;100.00
5146;BME280;2591;48.144;15.152;2022-09-09T04:10:02;75533.91;;;-144.65;100.00
5146;BME280;2591;48.144;15.152;2022-09-09T04:12:30;75540.03;;;-144.65;100.00
5146;BME280;2591;48.144;15.152;2022-09-09T04:14:58;75540.03;;;-144.65;100.00
5146;BME280;2591;48.144;15.152;2022-09-09T04:17:27;75531.88;;;-144.65;100.00
5146;BME280;2591;48.144;15.152;2022-09-09T04:19:55;75533.91;;;-144.65;100.00
5146;BME280;2591;48.144;15.152;2022-09-09T04:22:23;75535.94;;;-144.65;100.00
5146;BME280;2591;48.144;15.152;2022-09-09T04:24:52;75529.84;;;-144.65;100.00
5146;BME280;2591;48.144;15.152;2022-09-09T04:27:20;75533.91;;;-144.65;100.00
5146;BME280;2591;48.144;15.152;2022-09-09T04:29:48;75542.06;;;-144.65;100.00
5146;BME280;2591;48.144;15.152;2022-09-09T04:32:16;75537.97;;;-144.65;100.00
5146;BME280;2591;48.144;15.152;2022-09-09T04:34:44;75542.06;;;-144.65;100.00
5146;BME280;2591;48.144;15.152;2022-09-09T04:37:14;75548.19;;;-144.65;100.00
5146;BME280;2591;48.144;15.152;2022-09-09T04:39:43;75560.41;;;-144.65;100.00
5146;BME280;2591;48.144;15.152;2022-09-09T04:42:13;75548.19;;;-144.65;100.00
5146;BME280;2591;48.144;15.152;2022-09-09T04:44:41;75556.34;;;-144.65;100.00
5146;BME280;2591;48.144;15.152;2022-09-09T04:47:08;75560.41;;;-144.65;100.00
5146;BME280;2591;48.144;15.152;2022-09-09T04:49:36;75564.47;;;-144.65;100.00
5146;BME280;2591;48.144;15.152;2022-09-09T04:52:05;75548.19;;;-144.65;100.00
5146;BME280;2591;48.144;15.152;2022-09-09T04:54:32;75542.06;;;-144.65;100.00
5146;BME280;2591;48.144;15.152;2022-09-09T04:57:00;75546.13;;;-144.65;100.00
5146;BME280;2591;48.144;15.152;2022-09-09T04:59:29;75548.19;;;-144.65;100.00
5146;BME280;2591;48.144;15.152;2022-09-09T05:01:57;75556.34;;;-144.65;100.00
5146;BME280;2591;48.144;15.152;2022-09-09T05:04:27;75556.34;;;-144.65;100.00
5146;BME280;2591;48.144;15.152;2022-09-09T05:06:56;75564.47;;;-144.65;100.00
5146;BME280;2591;48.144;15.152;2022-09-09T05:09:23;75552.25;;;-144.65;100.00
5146;BME280;2591;48.144;15.152;2022-09-09T05:11:51;75558.38;;;-144.65;100.00
5146;BME280;2591;48.144;15.152;2022-09-09T05:14:19;75554.28;;;-144.65;100.00
5146;BME280;2591;48.144;15.152;2022-09-09T05:16:48;75556.34;;;-144.65;100.00
5146;BME280;2591;48.144;15.152;2022-09-09T05:19:16;75556.34;;;-144.65;100.00
5146;BME280;2591;48.144;15.152;2022-09-09T05:21:45;75546.13;;;-144.65;100.00
5146;BME280;2591;48.144;15.152;2022-09-09T05:24:13;75540.03;;;-144.65;100.00
5146;BME280;2591;48.144;15.152;2022-09-09T05:26:41;75544.09;;;-144.65;100.00
5146;BME280;2591;48.144;15.152;2022-09-09T05:29:09;75533.91;;;-144.65;100.00
5146;BME280;2591;48.144;15.152;2022-09-09T05:31:37;75540.03;;;-144.65;100.00
5146;BME280;2591;48.144;15.152;2022-09-09T05:34:06;75531.88;;;-144.65;100.00
5146;BME280;2591;48.144;15.152;2022-09-09T05:36:34;75527.78;;;-144.65;100.00
5146;BME280;2591;48.144;15.152;2022-09-09T05:39:02;75521.69;;;-144.65;100.00
5146;BME280;2591;48.144;15.152;2022-09-09T05:41:30;75519.63;;;-144.65;100.00
5146;BME280;2591;48.144;15.152;2022-09-09T05:43:58;75511.47;;;-144.65;100.00
5146;BME280;2591;48.144;15.152;2022-09-09T05:46:27;75503.34;;;-144.65;100.00
5146;BME280;2591;48.144;15.152;2022-09-09T05:48:55;75515.56;;;-144.65;100.00
5146;BME280;2591;48.144;15.152;2022-09-09T05:51:27;75511.47;;;-144.65;100.00
5146;BME280;2591;48.144;15.152;2022-09-09T05:53:56;75515.56;;;-144.65;100.00
5146;BME280;2591;48.144;15.152;2022-09-09T05:56:26;75503.34;;;-144.65;100.00
5146;BME280;2591;48.144;15.152;2022-09-09T05:58:55;75495.19;;;-144.65;100.00
5146;BME280;2591;48.144;15.152;2022-09-09T06:01:24;75499.25;;;-144.65;100.00
5146;BME280;2591;48.144;15.152;2022-09-09T06:03:53;75495.19;;;-144.65;100.00
5146;BME280;2591;48.144;15.152;2022-09-09T06:06:23;75495.19;;;-144.65;100.00
5146;BME280;2591;48.144;15.152;2022-09-09T06:08:57;75495.19;;;-144.65;100.00
5146;BME280;2591;48.144;15.152;2022-09-09T06:11:26;75487.03;;;-144.65;100.00
5146;BME280;2591;48.144;15.152;2022-09-09T06:13:57;75476.84;;;-144.65;100.00
5146;BME280;2591;48.144;15.152;2022-09-09T06:16:27;75462.56;;;-144.65;100.00
5146;BME280;2591;48.144;15.152;2022-09-09T06:18:56;75434.03;;;-144.65;100.00
5146;BME280;2591;48.144;15.152;2022-09-09T06:21:26;75413.66;;;-144.65;100.00
5146;BME280;2591;48.144;15.152;2022-09-09T06:23:54;75401.41;;;-144.65;100.00
5146;BME280;2591;48.144;15.152;2022-09-09T06:26:29;75399.38;;;-144.65;100.00
5146;BME280;2591;48.144;15.152;2022-09-09T06:28:58;75395.28;;;-144.65;100.00
5146;BME280;2591;48.144;15.152;2022-09-09T06:31:28;75381.03;;;-144.65;100.00
5146;BME280;2591;48.144;15.152;2022-09-09T06:33:58;75372.88;;;-144.65;100.00
5146;BME280;2591;48.144;15.152;2022-09-09T06:36:28;75372.88;;;-144.65;100.00
5146;BME280;2591;48.144;15.152;2022-09-09T06:38:56;75372.88;;;-144.65;100.00
5146;BME280;2591;48.144;15.152;2022-09-09T06:41:25;75356.56;;;-144.65;100.00
5146;BME280;2591;48.144;15.152;2022-09-09T06:43:55;75338.22;;;-144.65;100.00
5146;BME280;2591;48.144;15.152;2022-09-09T06:46:24;75332.09;;;-144.65;100.00
5146;BME280;2591;48.144;15.152;2022-09-09T06:48:54;75317.84;;;-144.65;100.00
5146;BME280;2591;48.144;15.152;2022-09-09T06:51:24;75307.66;;;-144.65;100.00
5146;BME280;2591;48.144;15.152;2022-09-09T06:53:55;75305.59;;;-144.65;100.00
5146;BME280;2591;48.144;15.152;2022-09-09T06:56:24;75315.81;;;-144.65;100.00
5146;BME280;2591;48.144;15.152;2022-09-09T06:58:57;75303.56;;;-144.65;100.00
5146;BME280;2591;48.144;15.152;2022-09-09T07:01:27;75283.19;;;-144.65;100.00
5146;BME280;2591;48.144;15.152;2022-09-09T07:03:58;75258.72;;;-144.65;100.00
5146;BME280;2591;48.144;15.152;2022-09-09T07:06:28;75266.88;;;-144.65;100.00
5146;BME280;2591;48.144;15.152;2022-09-09T07:08:57;75287.25;;;-144.65;100.00
5146;BME280;2591;48.144;15.152;2022-09-09T07:11:27;75279.09;;;-144.65;100.00
5146;BME280;2591;48.144;15.152;2022-09-09T07:13:58;75275.03;;;-144.65;100.00
5146;BME280;2591;48.144;15.152;2022-09-09T07:16:27;75268.91;;;-144.65;100.00
5146;BME280;2591;48.144;15.152;2022-09-09T07:18:56;75262.81;;;-144.65;100.00
5146;BME280;2591;48.144;15.152;2022-09-09T07:21:25;75264.84;;;-144.65;100.00
5146;BME280;2591;48.144;15.152;2022-09-09T07:23:54;75266.88;;;-144.65;100.00
5146;BME280;2591;48.144;15.152;2022-09-09T07:26:24;75273.00;;;-144.65;100.00
5146;BME280;2591;48.144;15.152;2022-09-09T07:28:52;75258.72;;;-144.65;100.00
5146;BME280;2591;48.144;15.152;2022-09-09T07:31:23;75266.88;;;-144.65;100.00
5146;BME280;2591;48.144;15.152;2022-09-09T07:33:53;75277.06;;;-144.65;100.00
5146;BME280;2591;48.144;15.152;2022-09-09T07:36:22;75281.16;;;-144.65;100.00
5146;BME280;2591;48.144;15.152;2022-09-09T07:39:00;75283.19;;;-144.65;100.00
5146;BME280;2591;48.144;15.152;2022-09-09T07:41:31;75285.22;;;-144.65;100.00
5146;BME280;2591;48.144;15.152;2022-09-09T07:44:04;75277.06;;;-144.65;100.00
5146;BME280;2591;48.144;15.152;2022-09-09T07:46:33;75285.22;;;-144.65;100.00
5146;BME280;2591;48.144;15.152;2022-09-09T07:49:01;75285.22;;;-144.65;100.00
5146;BME280;2591;48.144;15.152;2022-09-09T07:51:32;75275.03;;;-144.65;100.00
5146;BME280;2591;48.144;15.152;2022-09-09T07:54:02;75275.03;;;-144.65;100.00
5146;BME280;2591;48.144;15.152;2022-09-09T07:56:31;75283.19;;;-144.65;100.00
5146;BME280;2591;48.144;15.152;2022-09-09T07:58:59;75283.19;;;-144.65;100.00
5146;BME280;2591;48.144;15.152;2022-09-09T08:01:29;75270.97;;;-144.65;100.00
5146;BME280;2591;48.144;15.152;2022-09-09T08:04:00;75254.66;;;-144.65;100.00
5146;BME280;2591;48.144;15.152;2022-09-09T08:06:30;75236.31;;;-144.65;100.00
5146;BME280;2591;48.144;15.152;2022-09-09T08:08:59;75228.16;;;-144.65;100.00
5146;BME280;2591;48.144;15.152;2022-09-09T08:11:28;75222.03;;;-144.65;100.00
5146;BME280;2591;48.144;15.152;2022-09-09T08:14:04;75236.31;;;-144.65;100.00
5146;BME280;2591;48.144;15.152;2022-09-09T08:16:33;75238.34;;;-144.65;100.00
5146;BME280;2591;48.144;15.152;2022-09-09T08:19:04;75232.22;;;-144.65;100.00
5146;BME280;2591;48.144;15.152;2022-09-09T08:21:35;75226.13;;;-144.65;100.00
5146;BME280;2591;48.144;15.152;2022-09-09T08:24:06;75211.84;;;-144.65;100.00
5146;BME280;2591;48.144;15.152;2022-09-09T08:26:37;75203.69;;;-144.65;100.00
5146;BME280;2591;48.144;15.152;2022-09-09T08:29:07;75197.56;;;-144.65;100.00
5146;BME280;2591;48.144;15.152;2022-09-09T08:31:38;75195.53;;;-144.65;100.00
5146;BME280;2591;48.144;15.152;2022-09-09T08:34:08;75185.34;;;-144.65;100.00
5146;BME280;2591;48.144;15.152;2022-09-09T08:36:39;75173.13;;;-144.65;100.00
5146;BME280;2591;48.144;15.152;2022-09-09T08:39:07;75164.97;;;-144.65;100.00
5146;BME280;2591;48.144;15.152;2022-09-09T08:42:11;75152.75;;;-144.65;100.00
5146;BME280;2591;48.144;15.152;2022-09-09T08:45:00;75146.63;;;-144.65;100.00
5146;BME280;2591;48.144;15.152;2022-09-09T08:47:36;75132.34;;;-144.65;100.00
5146;BME280;2591;48.144;15.152;2022-09-09T08:50:19;75124.19;;;-144.65;100.00
5146;BME280;2591;48.144;15.152;2022-09-09T08:52:55;75124.19;;;-144.65;100.00
5146;BME280;2591;48.144;15.152;2022-09-09T08:55:35;75107.91;;;-144.65;100.00
5146;BME280;2591;48.144;15.152;2022-09-09T08:58:12;75093.63;;;-144.65;100.00
5146;BME280;2591;48.144;15.152;2022-09-09T09:00:47;75091.59;;;-144.65;100.00
5146;BME280;2591;48.144;15.152;2022-09-09T09:03:23;75083.44;;;-144.65;100.00
5146;BME280;2591;48.144;15.152;2022-09-09T09:06:02;75079.38;;;-144.65;100.00
5146;BME280;2591;48.144;15.152;2022-09-09T09:08:39;75075.28;;;-144.65;100.00
5146;BME280;2591;48.144;15.152;2022-09-09T09:11:11;75081.41;;;-144.65;100.00
5146;BME280;2591;48.144;15.152;2022-09-09T09:13:43;75083.44;;;-144.65;100.00
5146;BME280;2591;48.144;15.152;2022-09-09T09:16:19;75075.28;;;-144.65;100.00
5146;BME280;2591;48.144;15.152;2022-09-09T09:18:49;75071.22;;;-144.65;100.00
5146;BME280;2591;48.144;15.152;2022-09-09T09:21:23;75071.22;;;-144.65;100.00
5146;BME280;2591;48.144;15.152;2022-09-09T09:23:57;75063.06;;;-144.65;100.00
5146;BME280;2591;48.144;15.152;2022-09-09T09:26:31;75052.88;;;-144.65;100.00
5146;BME280;2591;48.144;15.152;2022-09-09T09:29:08;75042.69;;;-144.65;100.00
5146;BME280;2591;48.144;15.152;2022-09-09T09:31:37;75030.44;;;-144.65;100.00
5146;BME280;2591;48.144;15.152;2022-09-09T09:34:07;75028.41;;;-144.65;100.00
5146;BME280;2591;48.144;15.152;2022-09-09T09:36:41;75018.22;;;-144.65;100.00
5146;BME280;2591;48.144;15.152;2022-09-09T09:39:23;75010.06;;;-144.65;100.00
5146;BME280;2591;48.144;15.152;2022-09-09T09:42:12;75006.00;;;-144.65;100.00
5146;BME280;2591;48.144;15.152;2022-09-09T09:44:44;75024.34;;;-144.65;100.00
5146;BME280;2591;48.144;15.152;2022-09-09T09:47:14;75014.13;;;-144.65;100.00
5146;BME280;2591;48.144;15.152;2022-09-09T09:49:51;74997.84;;;-144.65;100.00
5146;BME280;2591;48.144;15.152;2022-09-09T09:52:23;75006.00;;;-144.65;100.00
5146;BME280;2591;48.144;15.152;2022-09-09T09:54:52;74981.53;;;-144.65;100.00
5146;BME280;2591;48.144;15.152;2022-09-09T09:57:24;74973.38;;;-144.65;100.00
5146;BME280;2591;48.144;15.152;2022-09-09T10:00:02;74963.19;;;-144.65;100.00
5146;BME280;2591;48.144;15.152;2022-09-09T10:02:37;74965.22;;;-144.65;100.00
5146;BME280;2591;48.144;15.152;2022-09-09T10:05:13;74959.13;;;-144.65;100.00
5146;BME280;2591;48.144;15.152;2022-09-09T10:07:43;74955.03;;;-144.65;100.00
5146;BME280;2591;48.144;15.152;2022-09-09T10:10:15;74961.16;;;-144.65;100.00
5146;BME280;2591;48.144;15.152;2022-09-09T10:12:57;74961.16;;;-144.65;100.00
5146;BME280;2591;48.144;15.152;2022-09-09T10:15:36;74979.50;;;-144.65;100.00
5146;BME280;2591;48.144;15.152;2022-09-09T10:21:03;74959.13;;;-144.65;100.00
5146;BME280;2591;48.144;15.152;2022-09-09T10:23:46;74965.22;;;-144.65;100.00
5146;BME280;2591;48.144;15.152;2022-09-09T10:26:31;74957.06;;;-144.65;100.00
5146;BME280;2591;48.144;15.152;2022-09-09T10:29:16;74948.91;;;-144.65;100.00
5146;BME280;2591;48.144;15.152;2022-09-09T10:31:55;74944.84;;;-144.65;100.00
5146;BME280;2591;48.144;15.152;2022-09-09T10:34:43;74936.69;;;-144.65;100.00
5146;BME280;2591;48.144;15.152;2022-09-09T10:37:21;74922.44;;;-144.65;100.00
5146;BME280;2591;48.144;15.152;2022-09-09T10:40:02;74904.09;;;-144.65;100.00
5146;BME280;2591;48.144;15.152;2022-09-09T10:42:36;74893.91;;;-144.65;100.00
5146;BME280;2591;48.144;15.152;2022-09-09T10:45:15;74889.81;;;-144.65;100.00
5146;BME280;2591;48.144;15.152;2022-09-09T10:47:59;74877.59;;;-144.65;100.00
5146;BME280;2591;48.144;15.152;2022-09-09T10:50:46;74875.56;;;-144.65;100.00
5146;BME280;2591;48.144;15.152;2022-09-09T10:53:36;74859.25;;;-144.65;100.00
5146;BME280;2591;48.144;15.152;2022-09-09T10:56:15;74844.97;;;-144.65;100.00
5146;BME280;2591;48.144;15.152;2022-09-09T10:58:48;74826.63;;;-144.65;100.00
5146;BME280;2591;48.144;15.152;2022-09-09T11:01:19;74789.94;;;-144.65;100.00
5146;BME280;2591;48.144;15.152;2022-09-09T11:03:53;74781.81;;;-144.65;100.00
5146;BME280;2591;48.144;15.152;2022-09-09T11:06:29;74755.31;;;-144.65;100.00
5146;BME280;2591;48.144;15.152;2022-09-09T11:09:01;74745.13;;;-144.65;100.00
5146;BME280;2591;48.144;15.152;2022-09-09T11:11:35;74749.19;;;-144.65;100.00
5146;BME280;2591;48.144;15.152;2022-09-09T11:14:12;74765.50;;;-144.65;100.00
5146;BME280;2591;48.144;15.152;2022-09-09T11:16:47;74771.59;;;-144.65;100.00
5146;BME280;2591;48.144;15.152;2022-09-09T11:19:25;74781.81;;;-144.65;100.00
5146;BME280;2591;48.144;15.152;2022-09-09T11:21:55;74814.41;;;-144.65;100.00
5146;BME280;2591;48.144;15.152;2022-09-09T11:24:28;74822.56;;;-144.65;100.00
5146;BME280;2591;48.144;15.152;2022-09-09T11:27:02;74818.47;;;-144.65;100.00
5146;BME280;2591;48.144;15.152;2022-09-09T11:29:50;74810.34;;;-144.65;100.00
5146;BME280;2591;48.144;15.152;2022-09-09T11:32:31;74802.19;;;-144.65;100.00
5146;BME280;2591;48.144;15.152;2022-09-09T11:35:12;74794.03;;;-144.65;100.00
5146;BME280;2591;48.144;15.152;2022-09-09T11:38:08;74789.94;;;-144.65;100.00
5146;BME280;2591;48.144;15.152;2022-09-09T11:40:43;74798.09;;;-144.65;100.00
5146;BME280;2591;48.144;15.152;2022-09-09T11:43:15;74810.34;;;-144.65;99.59
5146;BME280;2591;48.144;15.152;2022-09-09T11:45:50;74820.53;;;-144.65;98.54
5146;BME280;2591;48.144;15.152;2022-09-09T11:48:29;74855.16;;;-144.65;100.00
5146;BME280;2591;48.144;15.152;2022-09-09T11:51:02;74867.41;;;-144.65;100.00
5146;BME280;2591;48.144;15.152;2022-09-09T11:53:32;74883.69;;;-144.65;100.00
5146;BME280;2591;48.144;15.152;2022-09-09T11:56:02;74897.97;;;-144.65;100.00
5146;BME280;2591;48.144;15.152;2022-09-09T11:58:43;74916.31;;;-144.65;100.00
5146;BME280;2591;48.144;15.152;2022-09-09T12:01:16;74924.47;;;-144.65;100.00
5146;BME280;2591;48.144;15.152;2022-09-09T12:06:50;74948.91;;;-144.65;100.00
5146;BME280;2591;48.144;15.152;2022-09-09T12:09:24;74957.06;;;-144.65;100.00
5146;BME280;2591;48.144;15.152;2022-09-09T12:12:06;74957.06;;;-144.65;100.00
5146;BME280;2591;48.144;15.152;2022-09-09T12:14:38;74961.16;;;-144.65;100.00
5146;BME280;2591;48.144;15.152;2022-09-09T12:17:10;74969.31;;;-144.65;100.00
5146;BME280;2591;48.144;15.152;2022-09-09T12:19:46;74983.56;;;-144.65;100.00
5146;BME280;2591;48.144;15.152;2022-09-09T12:22:22;74977.47;;;-144.65;100.00
5146;BME280;2591;48.144;15.152;2022-09-09T12:24:58;74985.59;;;-144.65;100.00
5146;BME280;2591;48.144;15.152;2022-09-09T12:27:35;74981.53;;;-144.65;100.00
5146;BME280;2591;48.144;15.152;2022-09-09T12:30:11;74983.56;;;-144.65;100.00
5146;BME280;2591;48.144;15.152;2022-09-09T12:32:40;74981.53;;;-144.65;100.00
5146;BME280;2591;48.144;15.152;2022-09-09T12:35:11;74973.38;;;-144.65;100.00
5146;BME280;2591;48.144;15.152;2022-09-09T12:37:41;74965.22;;;-144.65;100.00
5146;BME280;2591;48.144;15.152;2022-09-09T12:40:20;74961.16;;;-144.65;100.00
5146;BME280;2591;48.144;15.152;2022-09-09T12:42:49;74953.00;;;-144.65;100.00
5146;BME280;2591;48.144;15.152;2022-09-09T12:45:19;74948.91;;;-144.65;100.00
5146;BME280;2591;48.144;15.152;2022-09-09T12:47:50;74950.97;;;-144.65;100.00
5146;BME280;2591;48.144;15.152;2022-09-09T12:50:21;74944.84;;;-144.65;100.00
5146;BME280;2591;48.144;15.152;2022-09-09T12:52:50;74940.78;;;-144.65;100.00
5146;BME280;2591;48.144;15.152;2022-09-09T12:55:22;74936.69;;;-144.65;100.00
5146;BME280;2591;48.144;15.152;2022-09-09T12:57:52;74924.47;;;-144.65;100.00
5146;BME280;2591;48.144;15.152;2022-09-09T13:00:23;74922.44;;;-144.65;100.00
5146;BME280;2591;48.144;15.152;2022-09-09T13:02:53;74916.31;;;-144.65;100.00
5146;BME280;2591;48.144;15.152;2022-09-09T13:05:23;74912.22;;;-144.65;100.00
5146;BME280;2591;48.144;15.152;2022-09-09T13:07:51;74904.09;;;-144.65;100.00
5146;BME280;2591;48.144;15.152;2022-09-09T13:10:24;74912.22;;;-144.65;100.00
5146;BME280;2591;48.144;15.152;2022-09-09T13:13:02;74916.31;;;-144.65;100.00